sensor_id;sensor_type;location;lat;lon;timestamp;pressure;altitude;pressure_sealevel;temperature;humidity
64025;BME280;50266;57.446;26.936;2023-04-01T00:00:32;97675.09;;;0.42;100.0
64025;BME280;50266;57.446;26.936;2023-04-01T00:01:32;97671.96;;;0.42;100.0
64025;BME280;50266;57.446;26.936;2023-04-01T00:02:32;97674.91;;;0.45;100.0
64025;BME280;50266;57.446;26.936;2023-04-01T00:03:32;97670.12;;;0.37;100.0
64025;BME280;50266;57.446;26.936;2023-04-01T00:04:32;97674.38;;;0.36;100.0
64025;BME280;50266;57.446;26.936;2023-04-01T00:05:32;97676.83;;;0.39;100.0
64025;BME280;50266;57.446;26.936;2023-04-01T00:06:32;97674.95;;;0.38;100.0
64025;BME280;50266;57.446;26.936;2023-04-01T00:07:32;97674.74;;;0.35;100.0
64025;BME280;50266;57.446;26.936;2023-04-01T00:08:32;97671.19;;;0.31;100.0
64025;BME280;50266;57.446;26.936;2023-04-01T00:09:32;97674.33;;;0.32;100.0
64025;BME280;50266;57.446;26.936;2023-04-01T00:10:32;97673.16;;;0.34;100.0
64025;BME280;50266;57.446;26.936;2023-04-01T00:11:32;97672.3;;;0.35;100.0
64025;BME280;50266;57.446;26.936;2023-04-01T00:12:32;97675.77;;;0.34;100.0
64025;BME280;50266;57.446;26.936;2023-04-01T00:13:32;97673.42;;;0.33;100.0
64025;BME280;50266;57.446;26.936;2023-04-01T00:14:32;97673.88;;;0.31;100.0
64025;BME280;50266;57.446;26.936;2023-04-01T00:15:33;97670.89;;;0.35;100.0
64025;BME280;50266;57.446;26.936;2023-04-01T00:16:32;97670.76;;;0.29;100.0
64025;BME280;50266;57.446;26.936;2023-04-01T00:17:32;97669.91;;;0.29;100.0
64025;BME280;50266;57.446;26.936;2023-04-01T00:18:32;97668.36;;;0.3;100.0
64025;BME280;50266;57.446;26.936;2023-04-01T00:19:32;97669.59;;;0.31;100.0
64025;BME280;50266;57.446;26.936;2023-04-01T00:20:32;97672.19;;;0.33;100.0
64025;BME280;50266;57.446;26.936;2023-04-01T00:21:32;97669.66;;;0.32;100.0
64025;BME280;50266;57.446;26.936;2023-04-01T00:22:32;97673.12;;;0.31;100.0
64025;BME280;50266;57.446;26.936;2023-04-01T00:23:33;97672.09;;;0.27;100.0
64025;BME280;50266;57.446;26.936;2023-04-01T00:24:32;97673.52;;;0.28;100.0
64025;BME280;50266;57.446;26.936;2023-04-01T00:25:32;97672.67;;;0.27;100.0
64025;BME280;50266;57.446;26.936;2023-04-01T00:26:32;97675.23;;;0.26;100.0
64025;BME280;50266;57.446;26.936;2023-04-01T00:27:32;97674.42;;;0.26;100.0
64025;BME280;50266;57.446;26.936;2023-04-01T00:28:33;97668.92;;;0.27;100.0
64025;BME280;50266;57.446;26.936;2023-04-01T00:29:32;97672.34;;;0.25;100.0
64025;BME280;50266;57.446;26.936;2023-04-01T00:30:33;97670.61;;;0.25;100.0
64025;BME280;50266;57.446;26.936;2023-04-01T00:31:33;97666.87;;;0.27;100.0
64025;BME280;50266;57.446;26.936;2023-04-01T00:32:33;97671.45;;;0.29;100.0
64025;BME280;50266;57.446;26.936;2023-04-01T00:33:33;97667.67;;;0.25;100.0
64025;BME280;50266;57.446;26.936;2023-04-01T00:34:33;97671.34;;;0.27;100.0
64025;BME280;50266;57.446;26.936;2023-04-01T00:35:33;97669.19;;;0.26;100.0
64025;BME280;50266;57.446;26.936;2023-04-01T00:36:33;97665.38;;;0.25;100.0
64025;BME280;50266;57.446;26.936;2023-04-01T00:37:34;97665.2;;;0.26;100.0
64025;BME280;50266;57.446;26.936;2023-04-01T00:38:33;97662.33;;;0.26;100.0
64025;BME280;50266;57.446;26.936;2023-04-01T00:39:33;97662.92;;;0.29;100.0
64025;BME280;50266;57.446;26.936;2023-04-01T00:40:37;97662.3;;;0.26;100.0
64025;BME280;50266;57.446;26.936;2023-04-01T00:41:34;97659.33;;;0.29;100.0
64025;BME280;50266;57.446;26.936;2023-04-01T00:42:34;97659.68;;;0.27;100.0
64025;BME280;50266;57.446;26.936;2023-04-01T00:43:34;97656.62;;;0.23;100.0
64025;BME280;50266;57.446;26.936;2023-04-01T00:44:34;97657.58;;;0.23;100.0
64025;BME280;50266;57.446;26.936;2023-04-01T00:45:35;97657.0;;;0.21;100.0
64025;BME280;50266;57.446;26.936;2023-04-01T00:46:34;97658.42;;;0.22;100.0
64025;BME280;50266;57.446;26.936;2023-04-01T00:47:34;97659.72;;;0.26;100.0
64025;BME280;50266;57.446;26.936;2023-04-01T00:48:34;97659.52;;;0.2;100.0
64025;BME280;50266;57.446;26.936;2023-04-01T00:49:38;97655.3;;;0.21;100.0
64025;BME280;50266;57.446;26.936;2023-04-01T00:50:35;97660.03;;;0.21;100.0
64025;BME280;50266;57.446;26.936;2023-04-01T00:51:35;97655.73;;;0.2;100.0
64025;BME280;50266;57.446;26.936;2023-04-01T00:52:35;97657.14;;;0.24;100.0
64025;BME280;50266;57.446;26.936;2023-04-01T00:53:36;97660.25;;;0.25;100.0
64025;BME280;50266;57.446;26.936;2023-04-01T00:54:35;97655.91;;;0.22;100.0
64025;BME280;50266;57.446;26.936;2023-04-01T00:55:35;97653.98;;;0.23;100.0
64025;BME280;50266;57.446;26.936;2023-04-01T00:56:36;97657.95;;;0.24;100.0
64025;BME280;50266;57.446;26.936;2023-04-01T00:57:35;97659.66;;;0.26;100.0
64025;BME280;50266;57.446;26.936;2023-04-01T00:58:36;97655.98;;;0.22;100.0
64025;BME280;50266;57.446;26.936;2023-04-01T00:59:37;97653.15;;;0.21;100.0
64025;BME280;50266;57.446;26.936;2023-04-01T01:00:35;97658.1;;;0.28;100.0
64025;BME280;50266;57.446;26.936;2023-04-01T01:01:35;97660.05;;;0.29;100.0
64025;BME280;50266;57.446;26.936;2023-04-01T01:02:35;97658.1;;;0.25;100.0
64025;BME280;50266;57.446;26.936;2023-04-01T01:03:35;97652.91;;;0.22;100.0
64025;BME280;50266;57.446;26.936;2023-04-01T01:04:35;97655.91;;;0.22;100.0
64025;BME280;50266;57.446;26.936;2023-04-01T01:05:43;97657.09;;;0.24;100.0
64025;BME280;50266;57.446;26.936;2023-04-01T01:06:43;97659.1;;;0.2;100.0
64025;BME280;50266;57.446;26.936;2023-04-01T01:07:44;97654.66;;;0.16;100.0
64025;BME280;50266;57.446;26.936;2023-04-01T01:10:40;97659.8;;;0.25;100.0
64025;BME280;50266;57.446;26.936;2023-04-01T01:13:44;97656.69;;;0.19;100.0
64025;BME280;50266;57.446;26.936;2023-04-01T01:16:49;97653.03;;;0.16;100.0
64025;BME280;50266;57.446;26.936;2023-04-01T01:18:01;97653.59;;;0.22;100.0
64025;BME280;50266;57.446;26.936;2023-04-01T01:22:06;97656.02;;;0.18;100.0
64025;BME280;50266;57.446;26.936;2023-04-01T01:23:11;97654.19;;;0.18;100.0
64025;BME280;50266;57.446;26.936;2023-04-01T01:25:12;97653.95;;;0.15;100.0
64025;BME280;50266;57.446;26.936;2023-04-01T01:27:11;97649.51;;;0.16;100.0
64025;BME280;50266;57.446;26.936;2023-04-01T01:29:25;97651.08;;;0.2;100.0
64025;BME280;50266;57.446;26.936;2023-04-01T01:30:24;97651.16;;;0.18;100.0
64025;BME280;50266;57.446;26.936;2023-04-01T01:31:27;97649.69;;;0.18;100.0
64025;BME280;50266;57.446;26.936;2023-04-01T01:32:38;97650.13;;;0.19;100.0
64025;BME280;50266;57.446;26.936;2023-04-01T01:33:22;97654.8;;;0.19;100.0
64025;BME280;50266;57.446;26.936;2023-04-01T01:34:40;97653.4;;;0.19;100.0
64025;BME280;50266;57.446;26.936;2023-04-01T01:35:31;97653.69;;;0.2;100.0
64025;BME280;50266;57.446;26.936;2023-04-01T01:36:25;97652.05;;;0.23;100.0
64025;BME280;50266;57.446;26.936;2023-04-01T01:37:25;97653.25;;;0.21;100.0
64025;BME280;50266;57.446;26.936;2023-04-01T01:38:26;97655.27;;;0.14;100.0
64025;BME280;50266;57.446;26.936;2023-04-01T01:39:29;97655.09;;;0.12;100.0
64025;BME280;50266;57.446;26.936;2023-04-01T01:40:26;97659.38;;;0.16;100.0
64025;BME280;50266;57.446;26.936;2023-04-01T01:41:26;97656.31;;;0.12;100.0
64025;BME280;50266;57.446;26.936;2023-04-01T01:42:26;97659.0;;;0.11;100.0
64025;BME280;50266;57.446;26.936;2023-04-01T01:43:29;97657.52;;;0.12;100.0
64025;BME280;50266;57.446;26.936;2023-04-01T01:44:26;97658.13;;;0.13;100.0
64025;BME280;50266;57.446;26.936;2023-04-01T01:45:26;97657.92;;;0.1;100.0
64025;BME280;50266;57.446;26.936;2023-04-01T01:46:26;97662.83;;;0.13;100.0
64025;BME280;50266;57.446;26.936;2023-04-01T01:47:27;97659.23;;;0.07;100.0
64025;BME280;50266;57.446;26.936;2023-04-01T01:48:27;97657.12;;;0.06;100.0
64025;BME280;50266;57.446;26.936;2023-04-01T01:49:27;97661.75;;;0.04;100.0
64025;BME280;50266;57.446;26.936;2023-04-01T01:50:26;97662.49;;;0.04;100.0
64025;BME280;50266;57.446;26.936;2023-04-01T01:51:26;97661.09;;;0.04;100.0
64025;BME280;50266;57.446;26.936;2023-04-01T01:52:27;97659.46;;;0.04;100.0
64025;BME280;50266;57.446;26.936;2023-04-01T01:53:26;97659.59;;;0.0;100.0
64025;BME280;50266;57.446;26.936;2023-04-01T01:54:27;97658.67;;;0.02;100.0
64025;BME280;50266;57.446;26.936;2023-04-01T01:55:28;97660.8;;;0.0;100.0
64025;BME280;50266;57.446;26.936;2023-04-01T01:56:27;97662.52;;;0.0;100.0
64025;BME280;50266;57.446;26.936;2023-04-01T01:57:31;97660.64;;;0.0;100.0
64025;BME280;50266;57.446;26.936;2023-04-01T01:58:36;97663.12;;;0.0;100.0
64025;BME280;50266;57.446;26.936;2023-04-01T01:59:29;97661.39;;;0.0;100.0
64025;BME280;50266;57.446;26.936;2023-04-01T02:00:29;97663.36;;;0.0;100.0
64025;BME280;50266;57.446;26.936;2023-04-01T02:01:30;97660.14;;;0.02;100.0
64025;BME280;50266;57.446;26.936;2023-04-01T02:02:29;97660.67;;;0.01;100.0
64025;BME280;50266;57.446;26.936;2023-04-01T02:03:30;97659.02;;;0.02;100.0
64025;BME280;50266;57.446;26.936;2023-04-01T02:04:29;97659.43;;;0.0;100.0
64025;BME280;50266;57.446;26.936;2023-04-01T02:05:29;97659.72;;;-0.02;100.0
64025;BME280;50266;57.446;26.936;2023-04-01T02:06:30;97661.22;;;-0.01;100.0
64025;BME280;50266;57.446;26.936;2023-04-01T02:07:31;97659.42;;;-0.01;100.0
64025;BME280;50266;57.446;26.936;2023-04-01T02:08:49;97659.44;;;0.0;100.0
64025;BME280;50266;57.446;26.936;2023-04-01T02:09:32;97656.58;;;-0.01;100.0
64025;BME280;50266;57.446;26.936;2023-04-01T02:10:34;97659.89;;;-0.02;100.0
64025;BME280;50266;57.446;26.936;2023-04-01T02:12:36;97657.35;;;-0.06;100.0
64025;BME280;50266;57.446;26.936;2023-04-01T02:13:48;97656.8;;;-0.06;100.0
64025;BME280;50266;57.446;26.936;2023-04-01T02:14:54;97656.71;;;-0.08;100.0
64025;BME280;50266;57.446;26.936;2023-04-01T02:15:44;97659.19;;;-0.11;100.0
64025;BME280;50266;57.446;26.936;2023-04-01T02:17:47;97659.38;;;-0.1;100.0
64025;BME280;50266;57.446;26.936;2023-04-01T02:18:48;97658.94;;;-0.05;100.0
64025;BME280;50266;57.446;26.936;2023-04-01T02:19:52;97658.06;;;-0.05;100.0
64025;BME280;50266;57.446;26.936;2023-04-01T02:20:50;97659.36;;;-0.08;100.0
64025;BME280;50266;57.446;26.936;2023-04-01T02:21:50;97664.66;;;-0.1;100.0
64025;BME280;50266;57.446;26.936;2023-04-01T02:22:51;97657.92;;;-0.08;100.0
64025;BME280;50266;57.446;26.936;2023-04-01T02:23:50;97657.08;;;-0.08;100.0
64025;BME280;50266;57.446;26.936;2023-04-01T02:24:50;97655.45;;;-0.1;100.0
64025;BME280;50266;57.446;26.936;2023-04-01T02:25:50;97658.02;;;-0.12;100.0
64025;BME280;50266;57.446;26.936;2023-04-01T02:26:50;97656.44;;;-0.1;100.0
64025;BME280;50266;57.446;26.936;2023-04-01T02:27:50;97657.34;;;-0.12;100.0
64025;BME280;50266;57.446;26.936;2023-04-01T02:28:50;97655.86;;;-0.11;100.0
64025;BME280;50266;57.446;26.936;2023-04-01T02:29:50;97664.33;;;-0.13;100.0
64025;BME280;50266;57.446;26.936;2023-04-01T02:30:50;97662.13;;;-0.08;100.0
64025;BME280;50266;57.446;26.936;2023-04-01T02:31:50;97658.7;;;-0.08;100.0
64025;BME280;50266;57.446;26.936;2023-04-01T02:32:50;97660.8;;;-0.12;100.0
64025;BME280;50266;57.446;26.936;2023-04-01T02:33:51;97661.7;;;-0.12;100.0
64025;BME280;50266;57.446;26.936;2023-04-01T02:34:50;97661.56;;;-0.14;100.0
64025;BME280;50266;57.446;26.936;2023-04-01T02:35:50;97663.31;;;-0.12;100.0
64025;BME280;50266;57.446;26.936;2023-04-01T02:36:50;97667.52;;;-0.08;100.0
64025;BME280;50266;57.446;26.936;2023-04-01T02:37:50;97669.65;;;-0.13;100.0
64025;BME280;50266;57.446;26.936;2023-04-01T02:38:50;97665.98;;;-0.11;100.0
64025;BME280;50266;57.446;26.936;2023-04-01T02:39:50;97668.19;;;-0.1;100.0
64025;BME280;50266;57.446;26.936;2023-04-01T02:40:51;97666.17;;;-0.11;100.0
64025;BME280;50266;57.446;26.936;2023-04-01T02:41:50;97663.42;;;-0.1;100.0
64025;BME280;50266;57.446;26.936;2023-04-01T02:42:50;97668.84;;;-0.11;100.0
64025;BME280;50266;57.446;26.936;2023-04-01T02:43:50;97669.42;;;-0.12;100.0
64025;BME280;50266;57.446;26.936;2023-04-01T02:44:50;97665.53;;;-0.12;100.0
64025;BME280;50266;57.446;26.936;2023-04-01T02:45:50;97664.34;;;-0.11;100.0
64025;BME280;50266;57.446;26.936;2023-04-01T02:46:50;97667.67;;;-0.14;100.0
64025;BME280;50266;57.446;26.936;2023-04-01T02:47:50;97667.7;;;-0.11;100.0
64025;BME280;50266;57.446;26.936;2023-04-01T02:48:50;97674.12;;;-0.1;100.0
64025;BME280;50266;57.446;26.936;2023-04-01T02:49:50;97674.78;;;-0.07;100.0
64025;BME280;50266;57.446;26.936;2023-04-01T02:50:50;97671.11;;;-0.08;100.0
64025;BME280;50266;57.446;26.936;2023-04-01T02:51:50;97673.13;;;-0.09;100.0
64025;BME280;50266;57.446;26.936;2023-04-01T02:52:55;97673.7;;;-0.1;100.0
64025;BME280;50266;57.446;26.936;2023-04-01T02:53:51;97674.92;;;-0.12;100.0
64025;BME280;50266;57.446;26.936;2023-04-01T02:54:51;97675.21;;;-0.11;100.0
64025;BME280;50266;57.446;26.936;2023-04-01T02:55:51;97672.42;;;-0.1;100.0
64025;BME280;50266;57.446;26.936;2023-04-01T02:56:51;97675.69;;;-0.1;100.0
64025;BME280;50266;57.446;26.936;2023-04-01T02:57:51;97676.55;;;-0.1;100.0
64025;BME280;50266;57.446;26.936;2023-04-01T02:58:52;97667.41;;;-0.1;100.0
64025;BME280;50266;57.446;26.936;2023-04-01T02:59:51;97674.7;;;-0.13;100.0
64025;BME280;50266;57.446;26.936;2023-04-01T03:00:51;97676.26;;;-0.11;100.0
64025;BME280;50266;57.446;26.936;2023-04-01T03:01:51;97671.84;;;-0.14;100.0
64025;BME280;50266;57.446;26.936;2023-04-01T03:02:52;97673.1;;;-0.12;100.0
64025;BME280;50266;57.446;26.936;2023-04-01T03:03:51;97676.14;;;-0.13;100.0
64025;BME280;50266;57.446;26.936;2023-04-01T03:04:52;97678.25;;;-0.11;100.0
64025;BME280;50266;57.446;26.936;2023-04-01T03:05:51;97675.5;;;-0.1;100.0
64025;BME280;50266;57.446;26.936;2023-04-01T03:06:51;97671.91;;;-0.13;100.0
64025;BME280;50266;57.446;26.936;2023-04-01T03:07:51;97677.73;;;-0.12;100.0
64025;BME280;50266;57.446;26.936;2023-04-01T03:08:51;97675.45;;;-0.12;100.0
64025;BME280;50266;57.446;26.936;2023-04-01T03:09:51;97677.34;;;-0.11;100.0
64025;BME280;50266;57.446;26.936;2023-04-01T03:10:51;97678.44;;;-0.13;100.0
64025;BME280;50266;57.446;26.936;2023-04-01T03:11:51;97679.3;;;-0.12;100.0
64025;BME280;50266;57.446;26.936;2023-04-01T03:12:51;97680.57;;;-0.11;100.0
64025;BME280;50266;57.446;26.936;2023-04-01T03:13:52;97678.23;;;-0.14;100.0
64025;BME280;50266;57.446;26.936;2023-04-01T03:14:52;97679.47;;;-0.09;100.0
64025;BME280;50266;57.446;26.936;2023-04-01T03:15:52;97681.36;;;-0.09;100.0
64025;BME280;50266;57.446;26.936;2023-04-01T03:16:52;97678.31;;;-0.11;100.0
64025;BME280;50266;57.446;26.936;2023-04-01T03:17:52;97682.39;;;-0.11;100.0
64025;BME280;50266;57.446;26.936;2023-04-01T03:18:52;97683.89;;;-0.1;100.0
64025;BME280;50266;57.446;26.936;2023-04-01T03:19:52;97680.61;;;-0.12;100.0
64025;BME280;50266;57.446;26.936;2023-04-01T03:20:52;97685.79;;;-0.11;100.0
64025;BME280;50266;57.446;26.936;2023-04-01T03:21:52;97684.78;;;-0.12;100.0
64025;BME280;50266;57.446;26.936;2023-04-01T03:22:52;97682.81;;;-0.11;100.0
64025;BME280;50266;57.446;26.936;2023-04-01T03:23:52;97678.31;;;-0.14;100.0
64025;BME280;50266;57.446;26.936;2023-04-01T03:24:52;97676.52;;;-0.11;100.0
64025;BME280;50266;57.446;26.936;2023-04-01T03:25:52;97673.88;;;-0.16;100.0
64025;BME280;50266;57.446;26.936;2023-04-01T03:26:52;97677.27;;;-0.14;100.0
64025;BME280;50266;57.446;26.936;2023-04-01T03:27:52;97674.75;;;-0.13;100.0
64025;BME280;50266;57.446;26.936;2023-04-01T03:28:52;97676.47;;;-0.13;100.0
64025;BME280;50266;57.446;26.936;2023-04-01T03:29:52;97678.3;;;-0.13;100.0
64025;BME280;50266;57.446;26.936;2023-04-01T03:30:52;97677.63;;;-0.11;100.0
64025;BME280;50266;57.446;26.936;2023-04-01T03:31:52;97679.27;;;-0.08;100.0
64025;BME280;50266;57.446;26.936;2023-04-01T03:32:52;97680.57;;;-0.11;100.0
64025;BME280;50266;57.446;26.936;2023-04-01T03:33:52;97682.8;;;-0.08;100.0
64025;BME280;50266;57.446;26.936;2023-04-01T03:34:52;97684.16;;;-0.08;100.0
64025;BME280;50266;57.446;26.936;2023-04-01T03:35:52;97683.47;;;-0.11;100.0
64025;BME280;50266;57.446;26.936;2023-04-01T03:36:52;97687.52;;;-0.08;100.0
64025;BME280;50266;57.446;26.936;2023-04-01T03:37:52;97683.48;;;-0.12;100.0
64025;BME280;50266;57.446;26.936;2023-04-01T03:38:52;97682.27;;;-0.12;100.0
64025;BME280;50266;57.446;26.936;2023-04-01T03:39:53;97689.67;;;-0.11;100.0
64025;BME280;50266;57.446;26.936;2023-04-01T03:40:52;97685.3;;;-0.07;100.0
64025;BME280;50266;57.446;26.936;2023-04-01T03:41:52;97688.65;;;-0.1;100.0
64025;BME280;50266;57.446;26.936;2023-04-01T03:42:52;97690.58;;;-0.1;100.0
64025;BME280;50266;57.446;26.936;2023-04-01T03:43:53;97685.73;;;-0.12;100.0
64025;BME280;50266;57.446;26.936;2023-04-01T03:44:52;97688.23;;;-0.1;100.0
64025;BME280;50266;57.446;26.936;2023-04-01T03:45:53;97688.2;;;-0.11;100.0
64025;BME280;50266;57.446;26.936;2023-04-01T03:46:52;97689.37;;;-0.13;100.0
64025;BME280;50266;57.446;26.936;2023-04-01T03:47:53;97688.06;;;-0.1;100.0
64025;BME280;50266;57.446;26.936;2023-04-01T03:48:52;97689.0;;;-0.09;100.0
64025;BME280;50266;57.446;26.936;2023-04-01T03:49:52;97690.98;;;-0.12;100.0
64025;BME280;50266;57.446;26.936;2023-04-01T03:50:53;97687.25;;;-0.1;100.0
64025;BME280;50266;57.446;26.936;2023-04-01T03:51:53;97689.73;;;-0.14;100.0
64025;BME280;50266;57.446;26.936;2023-04-01T03:52:53;97686.55;;;-0.08;100.0
64025;BME280;50266;57.446;26.936;2023-04-01T03:53:53;97686.59;;;-0.13;100.0
64025;BME280;50266;57.446;26.936;2023-04-01T03:54:53;97689.06;;;-0.13;100.0
64025;BME280;50266;57.446;26.936;2023-04-01T03:55:53;97687.41;;;-0.13;100.0
64025;BME280;50266;57.446;26.936;2023-04-01T03:56:53;97683.38;;;-0.12;100.0
64025;BME280;50266;57.446;26.936;2023-04-01T03:57:53;97686.06;;;-0.09;100.0
64025;BME280;50266;57.446;26.936;2023-04-01T03:58:53;97685.27;;;-0.11;100.0
64025;BME280;50266;57.446;26.936;2023-04-01T03:59:53;97685.98;;;-0.11;100.0
64025;BME280;50266;57.446;26.936;2023-04-01T04:00:53;97683.7;;;-0.11;100.0
64025;BME280;50266;57.446;26.936;2023-04-01T04:01:53;97686.75;;;-0.13;100.0
64025;BME280;50266;57.446;26.936;2023-04-01T04:02:53;97683.31;;;-0.12;100.0
64025;BME280;50266;57.446;26.936;2023-04-01T04:03:53;97685.89;;;-0.11;100.0
64025;BME280;50266;57.446;26.936;2023-04-01T04:04:53;97683.88;;;-0.13;100.0
64025;BME280;50266;57.446;26.936;2023-04-01T04:05:53;97685.68;;;-0.13;100.0
64025;BME280;50266;57.446;26.936;2023-04-01T04:06:53;97694.05;;;-0.11;100.0
64025;BME280;50266;57.446;26.936;2023-04-01T04:07:53;97691.42;;;-0.1;100.0
64025;BME280;50266;57.446;26.936;2023-04-01T04:08:53;97695.3;;;-0.12;100.0
64025;BME280;50266;57.446;26.936;2023-04-01T04:09:53;97691.42;;;-0.13;100.0
64025;BME280;50266;57.446;26.936;2023-04-01T04:10:55;97696.22;;;-0.1;100.0
64025;BME280;50266;57.446;26.936;2023-04-01T04:11:53;97699.02;;;-0.08;100.0
64025;BME280;50266;57.446;26.936;2023-04-01T04:12:53;97696.73;;;-0.08;100.0
64025;BME280;50266;57.446;26.936;2023-04-01T04:13:53;97695.84;;;-0.07;100.0
64025;BME280;50266;57.446;26.936;2023-04-01T04:14:53;97696.65;;;-0.1;100.0
64025;BME280;50266;57.446;26.936;2023-04-01T04:15:53;97700.03;;;-0.09;100.0
64025;BME280;50266;57.446;26.936;2023-04-01T04:16:53;97693.92;;;-0.12;100.0
64025;BME280;50266;57.446;26.936;2023-04-01T04:17:53;97695.7;;;-0.14;100.0
64025;BME280;50266;57.446;26.936;2023-04-01T04:18:53;97691.41;;;-0.12;100.0
64025;BME280;50266;57.446;26.936;2023-04-01T04:19:53;97694.36;;;-0.13;100.0
64025;BME280;50266;57.446;26.936;2023-04-01T04:20:53;97691.53;;;-0.14;100.0
64025;BME280;50266;57.446;26.936;2023-04-01T04:21:53;97696.17;;;-0.11;100.0
64025;BME280;50266;57.446;26.936;2023-04-01T04:22:53;97693.35;;;-0.1;100.0
64025;BME280;50266;57.446;26.936;2023-04-01T04:23:53;97692.42;;;-0.12;100.0
64025;BME280;50266;57.446;26.936;2023-04-01T04:24:53;97695.81;;;-0.12;100.0
64025;BME280;50266;57.446;26.936;2023-04-01T04:25:54;97693.97;;;-0.14;100.0
64025;BME280;50266;57.446;26.936;2023-04-01T04:26:53;97690.4;;;-0.12;100.0
64025;BME280;50266;57.446;26.936;2023-04-01T04:27:53;97694.09;;;-0.13;100.0
64025;BME280;50266;57.446;26.936;2023-04-01T04:28:53;97697.91;;;-0.15;100.0
64025;BME280;50266;57.446;26.936;2023-04-01T04:29:53;97691.44;;;-0.15;100.0
64025;BME280;50266;57.446;26.936;2023-04-01T04:30:53;97698.64;;;-0.11;100.0
64025;BME280;50266;57.446;26.936;2023-04-01T04:31:53;97692.34;;;-0.14;100.0
64025;BME280;50266;57.446;26.936;2023-04-01T04:32:53;97696.77;;;-0.09;100.0
64025;BME280;50266;57.446;26.936;2023-04-01T04:33:53;97697.61;;;-0.12;100.0
64025;BME280;50266;57.446;26.936;2023-04-01T04:34:53;97702.77;;;-0.13;100.0
64025;BME280;50266;57.446;26.936;2023-04-01T04:35:56;97698.14;;;-0.12;100.0
64025;BME280;50266;57.446;26.936;2023-04-01T04:36:53;97701.09;;;-0.14;100.0
64025;BME280;50266;57.446;26.936;2023-04-01T04:37:53;97699.06;;;-0.13;100.0
64025;BME280;50266;57.446;26.936;2023-04-01T04:38:53;97702.2;;;-0.14;100.0
64025;BME280;50266;57.446;26.936;2023-04-01T04:39:53;97702.95;;;-0.14;100.0
64025;BME280;50266;57.446;26.936;2023-04-01T04:40:54;97707.32;;;-0.1;100.0
64025;BME280;50266;57.446;26.936;2023-04-01T04:41:54;97709.34;;;-0.1;100.0
64025;BME280;50266;57.446;26.936;2023-04-01T04:42:54;97706.11;;;-0.13;100.0
64025;BME280;50266;57.446;26.936;2023-04-01T04:43:54;97706.51;;;-0.14;100.0
64025;BME280;50266;57.446;26.936;2023-04-01T04:44:54;97703.15;;;-0.15;100.0
64025;BME280;50266;57.446;26.936;2023-04-01T04:45:54;97704.11;;;-0.12;100.0
64025;BME280;50266;57.446;26.936;2023-04-01T04:46:54;97704.31;;;-0.1;100.0
64025;BME280;50266;57.446;26.936;2023-04-01T04:47:54;97705.77;;;-0.09;100.0
64025;BME280;50266;57.446;26.936;2023-04-01T04:48:54;97704.16;;;-0.11;100.0
64025;BME280;50266;57.446;26.936;2023-04-01T04:49:54;97706.45;;;-0.11;100.0
64025;BME280;50266;57.446;26.936;2023-04-01T04:50:54;97706.8;;;-0.11;100.0
64025;BME280;50266;57.446;26.936;2023-04-01T04:51:54;97709.8;;;-0.1;100.0
64025;BME280;50266;57.446;26.936;2023-04-01T04:52:54;97710.28;;;-0.1;100.0
64025;BME280;50266;57.446;26.936;2023-04-01T04:53:54;97709.14;;;-0.1;100.0
64025;BME280;50266;57.446;26.936;2023-04-01T04:54:54;97709.22;;;-0.11;100.0
64025;BME280;50266;57.446;26.936;2023-04-01T04:55:54;97710.06;;;-0.11;100.0
64025;BME280;50266;57.446;26.936;2023-04-01T04:56:54;97708.84;;;-0.12;100.0
64025;BME280;50266;57.446;26.936;2023-04-01T04:57:54;97710.23;;;-0.11;100.0
64025;BME280;50266;57.446;26.936;2023-04-01T04:58:54;97709.84;;;-0.1;100.0
64025;BME280;50266;57.446;26.936;2023-04-01T04:59:54;97710.1;;;-0.07;100.0
64025;BME280;50266;57.446;26.936;2023-04-01T05:00:54;97709.24;;;-0.09;100.0
64025;BME280;50266;57.446;26.936;2023-04-01T05:01:54;97708.22;;;-0.09;100.0
64025;BME280;50266;57.446;26.936;2023-04-01T05:02:54;97708.95;;;-0.1;100.0
64025;BME280;50266;57.446;26.936;2023-04-01T05:03:54;97710.03;;;-0.07;100.0
64025;BME280;50266;57.446;26.936;2023-04-01T05:04:54;97706.33;;;-0.05;100.0
64025;BME280;50266;57.446;26.936;2023-04-01T05:05:54;97702.73;;;-0.03;100.0
64025;BME280;50266;57.446;26.936;2023-04-01T05:06:54;97707.06;;;-0.03;100.0
64025;BME280;50266;57.446;26.936;2023-04-01T05:07:54;97707.3;;;-0.11;100.0
64025;BME280;50266;57.446;26.936;2023-04-01T05:08:54;97706.47;;;-0.06;100.0
64025;BME280;50266;57.446;26.936;2023-04-01T05:09:54;97706.66;;;-0.06;100.0
64025;BME280;50266;57.446;26.936;2023-04-01T05:10:54;97707.23;;;-0.07;100.0
64025;BME280;50266;57.446;26.936;2023-04-01T05:11:54;97706.02;;;-0.06;100.0
64025;BME280;50266;57.446;26.936;2023-04-01T05:12:54;97704.5;;;-0.08;100.0
64025;BME280;50266;57.446;26.936;2023-04-01T05:13:54;97703.45;;;-0.11;100.0
64025;BME280;50266;57.446;26.936;2023-04-01T05:14:54;97702.65;;;-0.06;100.0
64025;BME280;50266;57.446;26.936;2023-04-01T05:15:54;97704.39;;;-0.04;100.0
64025;BME280;50266;57.446;26.936;2023-04-01T05:16:54;97706.89;;;-0.06;100.0
64025;BME280;50266;57.446;26.936;2023-04-01T05:17:54;97708.65;;;-0.05;100.0
64025;BME280;50266;57.446;26.936;2023-04-01T05:18:54;97707.88;;;-0.03;100.0
64025;BME280;50266;57.446;26.936;2023-04-01T05:19:54;97708.7;;;-0.03;100.0
64025;BME280;50266;57.446;26.936;2023-04-01T05:20:55;97706.88;;;-0.05;100.0
64025;BME280;50266;57.446;26.936;2023-04-01T05:21:54;97706.23;;;-0.05;100.0
64025;BME280;50266;57.446;26.936;2023-04-01T05:22:57;97710.3;;;-0.04;100.0
64025;BME280;50266;57.446;26.936;2023-04-01T05:23:54;97710.75;;;-0.03;100.0
64025;BME280;50266;57.446;26.936;2023-04-01T05:24:54;97712.31;;;-0.07;100.0
64025;BME280;50266;57.446;26.936;2023-04-01T05:25:54;97709.83;;;-0.05;100.0
64025;BME280;50266;57.446;26.936;2023-04-01T05:26:54;97709.2;;;-0.01;100.0
64025;BME280;50266;57.446;26.936;2023-04-01T05:27:54;97709.59;;;-0.05;100.0
64025;BME280;50266;57.446;26.936;2023-04-01T05:28:54;97713.79;;;-0.07;100.0
64025;BME280;50266;57.446;26.936;2023-04-01T05:29:54;97711.7;;;-0.08;100.0
64025;BME280;50266;57.446;26.936;2023-04-01T05:30:54;97717.3;;;-0.05;100.0
64025;BME280;50266;57.446;26.936;2023-04-01T05:31:54;97714.98;;;-0.05;100.0